KLRF/LRF METAR and TAF weather

Enter ICAO airport designator
Station Type Date Time Source
KLRF METAR 2020/02/24 07:56 UTC NOAA

KLRF 240756Z AUTO 15010KT 10SM OVC003 10/09 A2983 RMK AO2 RAE40DZB40E43 SLP105 P0004 T00960094 $


Station Type Date Time Source
KLRF Decoded METAR 2020/02/24 07:56 UTC NOAA

Little Rock Air Force Base, AR, United States (KLRF) 34-55N 092-09W
Feb 24, 2020 - 02:56 AM EST / 2020.02.24 0756 UTC
Wind: from the SSE (150 degrees) at 12 MPH (10 KT):0
Visibility: 10 mile(s):0
Sky conditions: overcast
Precipitation last hour: 0.04 inches
Temperature: 49.3 F (9.6 C)
Dew Point: 48.9 F (9.4 C)
Relative Humidity: 98%
Pressure (altimeter): 29.83 in. Hg (1010 hPa)
ob: KLRF 240756Z AUTO 15010KT 10SM OVC003 10/09 A2983 RMK AO2 RAE40DZB40E43 SLP105 P0004 T00960094
cycle: 8

Station Type Date Time Source
KLRF TAF 2020/02/24 07:17 UTC NOAA

TAF KLRF 240700Z 2407/2513 17006KT 8000 -RA OVC002 WS020/20030KT 510202 QNH2988INS
BECMG 2408/2409 16006KT 8000 -RA BKN005 OVC015 510052 QNH2975INS
TEMPO 2411/2413 21020G30KT 6000 -TSRA OVC002CB
BECMG 2412/2413 19009KT 8000 -SHRA BKN005 OVC020 510053 QNH2968INS
BECMG 2418/2419 19012G20KT 9000 -SHRA FEW010 SCT025 BKN050 OVC120 520053 QNH2960INS
BECMG 2420/2421 22015G25KT 9999 NSW SCT030 SCT080 520043 QNH2956INS
BECMG 2422/2423 24012KT 9999 SCT040 510043 QNH2958INS
BECMG 2501/2502 25006KT 9999 BKN020 510053 QNH2964INS TX17/2420Z TN09/2407Z

Example: see airport list